createdAt,value
2019-04-07T00:00:33.474Z,9.20
2019-04-07T00:03:01.279Z,9.10
2019-04-07T00:05:28.751Z,9.10
2019-04-07T00:07:56.374Z,9.00
2019-04-07T00:10:24.946Z,9.10
2019-04-07T00:12:52.703Z,9.00
2019-04-07T00:15:20.774Z,8.90
2019-04-07T00:17:48.310Z,8.90
2019-04-07T00:20:15.772Z,9.10
2019-04-07T00:22:43.196Z,9.20
2019-04-07T00:25:10.682Z,9.10
2019-04-07T00:27:38.073Z,9.10
2019-04-07T00:30:06.520Z,9.30
2019-04-07T00:32:33.970Z,9.30
2019-04-07T00:35:01.396Z,9.20
2019-04-07T00:37:29.496Z,9.20
2019-04-07T00:39:57.735Z,9.20
2019-04-07T00:42:25.879Z,9.00
2019-04-07T00:44:53.337Z,8.90
2019-04-07T00:47:20.896Z,8.80
2019-04-07T00:49:48.344Z,8.70
2019-04-07T00:52:18.223Z,8.60
2019-04-07T00:54:45.890Z,8.80
2019-04-07T00:57:14.219Z,8.80
2019-04-07T00:59:42.182Z,8.70
2019-04-07T01:02:10.586Z,8.70
2019-04-07T01:04:38.065Z,8.70
2019-04-07T01:07:05.488Z,8.70
2019-04-07T01:09:32.945Z,8.80
2019-04-07T01:12:20.379Z,8.80
2019-04-07T01:14:47.898Z,8.90
2019-04-07T01:17:15.739Z,9.00
2019-04-07T01:19:44.261Z,8.90
2019-04-07T01:22:11.694Z,8.90
2019-04-07T01:24:39.489Z,8.80
2019-04-07T01:27:06.914Z,8.70
2019-04-07T01:29:34.340Z,8.70
2019-04-07T01:32:01.783Z,8.60
2019-04-07T01:34:29.206Z,8.50
2019-04-07T01:36:56.785Z,8.50
2019-04-07T01:39:24.255Z,8.50
2019-04-07T01:42:00.017Z,8.40
2019-04-07T01:44:33.406Z,8.30
2019-04-07T01:47:26.720Z,8.50
2019-04-07T01:50:03.592Z,8.60
2019-04-07T01:52:50.542Z,8.50
2019-04-07T01:55:37.454Z,8.50
2019-04-07T01:58:22.629Z,8.60
2019-04-07T02:01:12.940Z,8.70
2019-04-07T02:03:53.696Z,8.50
2019-04-07T02:06:36.496Z,8.30
2019-04-07T02:09:24.811Z,8.20
2019-04-07T02:12:14.941Z,8.00
2019-04-07T02:15:00.956Z,7.90
2019-04-07T02:17:34.071Z,7.80
2019-04-07T02:20:24.005Z,7.90
2019-04-07T02:23:06.314Z,7.90
2019-04-07T02:25:42.771Z,7.90
2019-04-07T02:28:29.736Z,7.90
2019-04-07T02:31:17.150Z,7.80
2019-04-07T02:34:07.133Z,7.70
2019-04-07T02:37:06.630Z,7.60
2019-04-07T02:39:56.782Z,7.60
2019-04-07T02:42:59.485Z,7.50
2019-04-07T02:45:34.352Z,7.40
2019-04-07T02:48:24.201Z,7.40
2019-04-07T02:51:08.138Z,7.50
2019-04-07T02:53:42.009Z,7.50
2019-04-07T02:56:27.982Z,7.50
2019-04-07T02:59:20.630Z,7.50
2019-04-07T03:01:59.342Z,7.30
2019-04-07T03:04:46.019Z,7.20
2019-04-07T03:07:19.859Z,7.00
2019-04-07T03:10:00.201Z,7.00
2019-04-07T03:12:48.391Z,7.10
2019-04-07T03:15:41.383Z,7.10
2019-04-07T03:18:20.160Z,7.20
2019-04-07T03:21:08.133Z,7.20
2019-04-07T03:24:00.958Z,7.20
2019-04-07T03:26:57.015Z,7.10
2019-04-07T03:29:42.534Z,7.20
2019-04-07T03:32:27.638Z,7.10
2019-04-07T03:35:15.056Z,7.10
2019-04-07T03:37:49.021Z,6.80
2019-04-07T03:40:42.891Z,6.90
2019-04-07T03:43:35.848Z,6.80
2019-04-07T03:46:32.580Z,6.90
2019-04-07T03:49:11.514Z,6.90
2019-04-07T03:52:05.643Z,6.80
2019-04-07T03:54:55.447Z,6.80
2019-04-07T03:57:41.958Z,6.80
2019-04-07T04:00:53.714Z,6.80
2019-04-07T04:03:37.280Z,6.80
2019-04-07T04:06:20.994Z,6.70
2019-04-07T04:08:55.017Z,6.60
2019-04-07T04:11:39.403Z,6.40
2019-04-07T04:14:35.180Z,6.30
2019-04-07T04:17:02.797Z,6.20
2019-04-07T04:19:30.307Z,6.10
2019-04-07T04:21:58.759Z,6.20
2019-04-07T04:24:26.597Z,6.20
2019-04-07T04:26:54.263Z,6.20
2019-04-07T04:29:23.151Z,6.20
2019-04-07T04:31:50.757Z,6.10
2019-04-07T04:34:19.093Z,5.90
2019-04-07T04:36:47.857Z,5.80
2019-04-07T04:39:18.688Z,5.80
2019-04-07T04:41:44.730Z,5.80
2019-04-07T04:44:12.320Z,5.80
2019-04-07T04:46:40.752Z,5.80
2019-04-07T04:49:08.681Z,5.90
2019-04-07T04:51:39.301Z,6.00
2019-04-07T04:54:06.980Z,6.00
2019-04-07T04:56:34.497Z,6.10
2019-04-07T04:59:02.196Z,6.00
2019-04-07T05:01:29.615Z,6.10
2019-04-07T05:03:57.313Z,6.00
2019-04-07T05:06:25.370Z,6.10
2019-04-07T05:08:53.258Z,6.00
2019-04-07T05:11:21.172Z,6.00
2019-04-07T05:13:48.926Z,5.90
2019-04-07T05:16:16.407Z,5.90
2019-04-07T05:18:43.829Z,5.90
2019-04-07T05:21:11.833Z,5.90
2019-04-07T05:23:39.459Z,6.00
2019-04-07T05:26:07.072Z,6.00
2019-04-07T05:28:36.887Z,6.00
2019-04-07T05:31:04.318Z,6.10
2019-04-07T05:33:32.030Z,6.10
2019-04-07T05:35:59.486Z,6.10
2019-04-07T05:38:26.913Z,6.10
2019-04-07T05:40:55.326Z,6.10
2019-04-07T05:43:22.838Z,6.20
2019-04-07T05:45:50.924Z,6.30
2019-04-07T05:48:20.350Z,6.30
2019-04-07T05:50:48.742Z,6.40
2019-04-07T05:53:17.222Z,6.40
2019-04-07T05:55:44.868Z,6.50
2019-04-07T05:58:15.279Z,6.60
2019-04-07T06:00:45.769Z,6.60
2019-04-07T06:03:12.358Z,6.70
2019-04-07T06:05:40.035Z,6.80
2019-04-07T06:08:22.370Z,7.00
2019-04-07T06:10:37.036Z,7.00
2019-04-07T06:13:05.339Z,7.10
2019-04-07T06:15:33.537Z,7.20
2019-04-07T06:18:01.472Z,7.40
2019-04-07T06:20:30.196Z,7.60
2019-04-07T06:22:57.670Z,7.80
2019-04-07T06:25:25.166Z,7.80
2019-04-07T06:27:53.175Z,8.00
2019-04-07T06:30:23.218Z,8.10
2019-04-07T06:32:51.519Z,8.10
2019-04-07T06:35:19.295Z,8.30
2019-04-07T06:37:47.587Z,8.40
2019-04-07T06:40:15.449Z,8.40
2019-04-07T06:42:44.750Z,8.50
2019-04-07T06:45:14.129Z,8.60
2019-04-07T06:47:48.610Z,8.80
2019-04-07T06:50:45.490Z,8.90
2019-04-07T06:53:30.119Z,9.20
2019-04-07T06:56:12.627Z,9.40
2019-04-07T06:59:00.183Z,9.60
2019-04-07T07:01:43.776Z,9.70
2019-04-07T07:04:30.014Z,9.80
2019-04-07T07:07:16.773Z,10.20
2019-04-07T07:10:06.234Z,10.30
2019-04-07T07:12:47.215Z,10.40
2019-04-07T07:15:34.572Z,10.50
2019-04-07T07:18:12.169Z,10.60
2019-04-07T07:21:08.169Z,10.70
2019-04-07T07:23:38.583Z,10.90
2019-04-07T07:26:06.138Z,11.00
2019-04-07T07:28:33.751Z,11.10
2019-04-07T07:31:02.144Z,11.20
2019-04-07T07:33:29.645Z,11.30
2019-04-07T07:35:59.303Z,11.30
2019-04-07T07:38:30.258Z,11.50
2019-04-07T07:40:56.934Z,11.50
2019-04-07T07:43:27.970Z,11.60
2019-04-07T07:45:53.762Z,11.70
2019-04-07T07:48:26.096Z,11.70
2019-04-07T07:50:51.156Z,11.70
2019-04-07T07:53:21.904Z,11.80
2019-04-07T07:55:49.729Z,12.00
2019-04-07T07:58:17.321Z,12.20
2019-04-07T08:00:46.066Z,12.10
2019-04-07T08:03:13.782Z,12.20
2019-04-07T08:05:41.850Z,12.20
2019-04-07T08:08:09.302Z,12.50
2019-04-07T08:10:37.569Z,12.80
2019-04-07T08:13:07.717Z,13.10
2019-04-07T08:15:34.891Z,13.00
2019-04-07T08:18:04.677Z,13.20
2019-04-07T08:20:31.866Z,13.20
2019-04-07T08:23:00.681Z,13.60
2019-04-07T08:25:28.198Z,13.70
2019-04-07T08:27:56.477Z,14.00
2019-04-07T08:30:26.073Z,14.10
2019-04-07T08:32:57.641Z,14.20
2019-04-07T08:35:23.292Z,14.00
2019-04-07T08:37:50.830Z,14.30
2019-04-07T08:40:18.819Z,14.70
2019-04-07T08:42:48.481Z,14.80
2019-04-07T08:45:16.778Z,14.90
2019-04-07T08:47:47.357Z,15.10
2019-04-07T08:50:13.554Z,15.30
2019-04-07T08:52:43.022Z,15.30
2019-04-07T08:55:10.446Z,15.10
2019-04-07T08:57:37.983Z,15.70
2019-04-07T09:00:06.874Z,15.50
2019-04-07T09:02:34.703Z,15.90
2019-04-07T09:05:04.434Z,15.80
2019-04-07T09:07:33.379Z,16.20
2019-04-07T09:10:02.400Z,16.10
2019-04-07T09:12:31.364Z,16.20
2019-04-07T09:15:02.830Z,16.50
2019-04-07T09:17:47.779Z,16.50
2019-04-07T09:20:40.886Z,16.70
2019-04-07T09:23:25.665Z,16.80
2019-04-07T09:26:29.774Z,16.80
2019-04-07T09:29:28.178Z,17.10
2019-04-07T09:32:14.314Z,16.70
2019-04-07T09:35:07.230Z,17.30
2019-04-07T09:37:58.748Z,17.60
2019-04-07T09:44:19.803Z,17.00
2019-04-07T09:46:57.469Z,17.00
2019-04-07T09:49:49.606Z,17.20
2019-04-07T09:52:43.597Z,17.60
2019-04-07T09:55:20.519Z,17.40
2019-04-07T09:58:14.891Z,17.70
2019-04-07T10:01:01.987Z,17.50
2019-04-07T10:04:07.784Z,17.80
2019-04-07T10:07:15.116Z,17.80
2019-04-07T10:10:12.987Z,17.90
2019-04-07T10:12:48.714Z,17.80
2019-04-07T10:15:36.160Z,18.10
2019-04-07T10:18:09.846Z,18.40
2019-04-07T10:20:57.841Z,18.50
2019-04-07T10:23:50.915Z,18.50
2019-04-07T10:26:29.091Z,18.60
2019-04-07T10:29:19.789Z,18.20
2019-04-07T10:32:06.445Z,17.80
2019-04-07T10:34:56.623Z,18.00
2019-04-07T10:37:33.544Z,17.80
2019-04-07T10:40:22.207Z,18.00
2019-04-07T10:43:00.048Z,18.30
2019-04-07T10:45:41.754Z,18.70
2019-04-07T10:48:28.894Z,18.70
2019-04-07T10:51:15.321Z,18.70
2019-04-07T10:54:08.206Z,19.30
2019-04-07T10:56:55.253Z,19.40
2019-04-07T10:59:45.306Z,19.30
2019-04-07T11:02:41.487Z,19.30
2019-04-07T11:05:24.466Z,19.90
2019-04-07T11:08:10.592Z,20.40
2019-04-07T11:11:00.375Z,19.60
2019-04-07T11:13:45.694Z,20.10
2019-04-07T11:16:33.731Z,20.60
2019-04-07T11:22:50.171Z,20.30
2019-04-07T11:25:36.027Z,20.60
2019-04-07T11:28:21.775Z,21.20
2019-04-07T11:30:59.340Z,21.00
2019-04-07T11:33:58.850Z,21.10
2019-04-07T11:37:04.898Z,21.30
2019-04-07T11:39:48.218Z,20.90
2019-04-07T11:42:35.437Z,21.60
2019-04-07T11:45:26.955Z,22.00
2019-04-07T11:48:13.054Z,21.80
2019-04-07T11:51:09.620Z,21.30
2019-04-07T11:53:59.903Z,21.80
2019-04-07T11:56:47.136Z,21.40
2019-04-07T11:59:56.219Z,21.70
2019-04-07T12:02:44.274Z,21.90
2019-04-07T12:05:31.126Z,22.10
2019-04-07T12:08:17.173Z,21.50
2019-04-07T12:11:06.239Z,21.60
2019-04-07T12:13:58.718Z,22.30
2019-04-07T12:16:56.924Z,21.20
2019-04-07T12:19:28.971Z,20.90
2019-04-07T12:22:02.395Z,21.10
2019-04-07T12:25:05.785Z,21.80
2019-04-07T12:27:58.875Z,21.70
2019-04-07T12:30:48.788Z,22.60
2019-04-07T12:33:38.616Z,21.70
2019-04-07T12:36:26.591Z,20.80
2019-04-07T12:39:05.095Z,20.40
2019-04-07T12:41:48.814Z,20.30
2019-04-07T12:44:23.404Z,19.90
2019-04-07T12:47:05.347Z,19.40
2019-04-07T12:49:45.510Z,19.40
2019-04-07T12:52:35.340Z,19.90
2019-04-07T12:55:30.530Z,21.10
2019-04-07T12:58:13.020Z,21.00
2019-04-07T13:01:06.849Z,20.80
2019-04-07T13:03:57.446Z,21.00
2019-04-07T13:06:49.401Z,20.60
2019-04-07T13:09:32.320Z,21.10
2019-04-07T13:12:22.291Z,20.80
2019-04-07T13:15:08.551Z,21.30
2019-04-07T13:17:58.143Z,22.00
2019-04-07T13:20:32.124Z,22.40
2019-04-07T13:23:28.667Z,23.00
2019-04-07T13:26:21.956Z,21.30
2019-04-07T13:28:57.537Z,21.10
2019-04-07T13:31:33.143Z,20.60
2019-04-07T13:34:39.093Z,20.60
2019-04-07T13:37:26.509Z,20.90
2019-04-07T13:40:14.101Z,20.30
2019-04-07T13:43:09.941Z,20.80
2019-04-07T13:45:55.833Z,21.50
2019-04-07T13:48:53.685Z,22.10
2019-04-07T13:51:40.919Z,22.40
2019-04-07T13:54:30.782Z,22.30
2019-04-07T13:57:25.990Z,21.30
2019-04-07T14:00:18.423Z,20.70
2019-04-07T14:03:05.885Z,20.20
2019-04-07T14:06:04.897Z,20.40
2019-04-07T14:09:01.396Z,21.10
2019-04-07T14:12:04.877Z,21.40
2019-04-07T14:14:41.609Z,22.00
2019-04-07T14:17:29.697Z,22.20
2019-04-07T14:20:31.977Z,20.90
2019-04-07T14:23:18.667Z,21.10
2019-04-07T14:25:53.777Z,23.10
2019-04-07T14:28:47.552Z,24.50
2019-04-07T14:31:34.770Z,24.80
2019-04-07T14:34:10.733Z,23.90
2019-04-07T14:36:46.702Z,23.60
2019-04-07T14:39:33.628Z,23.40
2019-04-07T14:42:20.596Z,24.40
2019-04-07T14:45:07.783Z,24.50
2019-04-07T14:47:57.808Z,24.80
2019-04-07T14:50:34.492Z,24.70
2019-04-07T14:53:25.379Z,26.00
2019-04-07T14:56:18.620Z,25.30
2019-04-07T14:58:57.346Z,24.70
2019-04-07T15:01:36.840Z,24.30
2019-04-07T15:04:06.393Z,23.20
2019-04-07T15:06:34.948Z,22.30
2019-04-07T15:09:13.592Z,22.10
2019-04-07T15:11:46.779Z,22.00
2019-04-07T15:14:14.853Z,21.90
2019-04-07T15:16:42.872Z,23.00
2019-04-07T15:19:11.588Z,23.50
2019-04-07T15:21:40.025Z,22.80
2019-04-07T15:24:08.601Z,22.20
2019-04-07T15:26:37.850Z,21.90
2019-04-07T15:29:09.226Z,21.90
2019-04-07T15:31:36.303Z,21.60
2019-04-07T15:34:07.277Z,21.30
2019-04-07T15:36:34.910Z,21.60
2019-04-07T15:39:03.193Z,20.90
2019-04-07T15:41:30.793Z,20.20
2019-04-07T15:43:58.497Z,20.00
2019-04-07T15:46:26.773Z,20.00
2019-04-07T15:48:55.900Z,19.90
2019-04-07T15:51:23.838Z,19.80
2019-04-07T15:53:52.079Z,19.80
2019-04-07T15:56:20.799Z,19.70
2019-04-07T15:58:48.445Z,19.70
2019-04-07T16:01:19.209Z,19.60
2019-04-07T16:03:50.516Z,19.60
2019-04-07T16:06:16.676Z,19.60
2019-04-07T16:08:45.772Z,19.40
2019-04-07T16:11:13.358Z,19.30
2019-04-07T16:13:42.298Z,19.20
2019-04-07T16:16:09.775Z,19.10
2019-04-07T16:18:40.233Z,18.90
2019-04-07T16:21:09.077Z,19.10
2019-04-07T16:23:38.139Z,19.10
2019-04-07T16:26:06.642Z,19.10
2019-04-07T16:28:35.026Z,19.20
2019-04-07T16:31:02.719Z,19.10
2019-04-07T16:33:32.573Z,18.90
2019-04-07T16:36:00.058Z,18.70
2019-04-07T16:38:29.282Z,18.70
2019-04-07T16:40:56.884Z,18.60
2019-04-07T16:43:24.696Z,18.60
2019-04-07T16:45:53.596Z,18.50
2019-04-07T16:48:21.646Z,18.40
2019-04-07T16:50:53.317Z,18.50
2019-04-07T16:53:18.608Z,18.50
2019-04-07T16:55:48.891Z,18.50
2019-04-07T16:58:16.005Z,18.50
2019-04-07T17:00:47.532Z,18.40
2019-04-07T17:03:15.445Z,18.30
2019-04-07T17:05:43.147Z,18.20
2019-04-07T17:08:10.998Z,18.20
2019-04-07T17:10:39.153Z,18.20
2019-04-07T17:13:16.877Z,18.20
2019-04-07T17:15:39.579Z,18.10
2019-04-07T17:18:09.846Z,18.10
2019-04-07T17:20:38.157Z,18.00
2019-04-07T17:23:07.089Z,17.90
2019-04-07T17:25:35.789Z,17.90
2019-04-07T17:28:06.024Z,17.90
2019-04-07T17:30:33.936Z,17.90
2019-04-07T17:33:03.208Z,17.80
2019-04-07T17:35:31.176Z,17.70
2019-04-07T17:38:05.018Z,17.70
2019-04-07T17:40:33.740Z,17.60
2019-04-07T17:43:28.695Z,17.60
2019-04-07T17:46:02.527Z,17.50
2019-04-07T17:48:54.413Z,17.60
2019-04-07T17:51:27.474Z,17.50
2019-04-07T17:54:17.444Z,17.50
2019-04-07T17:57:12.283Z,17.40
2019-04-07T18:00:18.585Z,17.40
2019-04-07T18:02:58.982Z,17.40
2019-04-07T18:05:32.643Z,17.30
2019-04-07T18:08:18.333Z,17.20
2019-04-07T18:11:04.353Z,17.20
2019-04-07T18:13:57.451Z,17.20
2019-04-07T18:16:48.280Z,17.10
2019-04-07T18:19:27.103Z,17.10
2019-04-07T18:22:06.196Z,17.10
2019-04-07T18:24:43.758Z,17.00
2019-04-07T18:27:27.255Z,17.00
2019-04-07T18:30:20.561Z,16.90
2019-04-07T18:33:13.032Z,16.90
2019-04-07T18:36:07.025Z,16.80
2019-04-07T18:38:58.137Z,16.90
2019-04-07T18:41:41.296Z,16.80
2019-04-07T18:44:35.357Z,16.70
2019-04-07T18:47:20.831Z,16.70
2019-04-07T18:50:08.758Z,16.70
2019-04-07T18:52:57.267Z,16.70
2019-04-07T18:55:39.101Z,16.60
2019-04-07T18:58:47.110Z,16.60
2019-04-07T19:01:48.993Z,16.50
2019-04-07T19:04:38.791Z,16.50
2019-04-07T19:07:22.487Z,16.50
2019-04-07T19:10:08.668Z,16.50
2019-04-07T19:12:47.711Z,16.40
2019-04-07T19:15:37.101Z,16.40
2019-04-07T19:18:24.318Z,16.30
2019-04-07T19:21:13.753Z,16.30
2019-04-07T19:24:00.871Z,16.20
2019-04-07T19:26:52.343Z,16.20
2019-04-07T19:29:33.725Z,16.20
2019-04-07T19:32:29.764Z,16.20
2019-04-07T19:35:16.574Z,16.10
2019-04-07T19:37:53.886Z,16.10
2019-04-07T19:40:40.202Z,16.00
2019-04-07T19:43:25.305Z,16.00
2019-04-07T19:46:03.177Z,16.00
2019-04-07T19:48:56.297Z,16.00
2019-04-07T19:51:48.217Z,15.90
2019-04-07T19:54:29.394Z,15.90
2019-04-07T19:57:22.373Z,15.90
2019-04-07T19:59:59.278Z,15.80
2019-04-07T20:02:40.527Z,15.80
2019-04-07T20:05:34.666Z,15.70
2019-04-07T20:08:27.212Z,15.70
2019-04-07T20:11:12.748Z,15.70
2019-04-07T20:13:59.573Z,15.60
2019-04-07T20:16:55.641Z,15.60
2019-04-07T20:19:46.936Z,15.60
2019-04-07T20:22:23.124Z,15.50
2019-04-07T20:25:12.466Z,15.50
2019-04-07T20:28:13.107Z,15.50
2019-04-07T20:30:55.998Z,15.50
2019-04-07T20:33:44.567Z,15.40
2019-04-07T20:36:31.974Z,15.40
2019-04-07T20:39:13.596Z,15.40
2019-04-07T20:41:48.406Z,15.40
2019-04-07T20:44:34.411Z,15.40
2019-04-07T20:47:13.374Z,15.30
2019-04-07T20:50:00.431Z,15.30
2019-04-07T20:52:50.477Z,15.20
2019-04-07T20:55:37.338Z,15.20
2019-04-07T20:58:25.098Z,15.20
2019-04-07T21:01:12.978Z,15.10
2019-04-07T21:03:59.945Z,15.00
2019-04-07T21:06:47.601Z,14.80
2019-04-07T21:09:37.342Z,14.70
2019-04-07T21:12:28.604Z,14.60
2019-04-07T21:15:25.698Z,14.50
2019-04-07T21:18:06.867Z,14.30
2019-04-07T21:20:54.656Z,14.30
2019-04-07T21:23:41.176Z,14.10
2019-04-07T21:26:19.200Z,14.00
2019-04-07T21:29:01.070Z,13.90
2019-04-07T21:31:48.780Z,13.90
2019-04-07T21:34:29.587Z,13.90
2019-04-07T21:37:19.625Z,13.80
2019-04-07T21:40:04.177Z,13.80
2019-04-07T21:42:52.028Z,13.80
2019-04-07T21:45:41.106Z,13.80
2019-04-07T21:48:24.386Z,13.70
2019-04-07T21:51:14.283Z,13.70
2019-04-07T21:54:02.713Z,13.60
2019-04-07T21:56:45.189Z,13.70
2019-04-07T21:59:35.340Z,13.60
2019-04-07T22:02:25.726Z,13.60
2019-04-07T22:05:07.235Z,13.60
2019-04-07T22:07:53.545Z,13.60
2019-04-07T22:10:22.009Z,13.50
2019-04-07T22:12:50.323Z,13.40
2019-04-07T22:15:17.763Z,13.30
2019-04-07T22:17:45.803Z,13.30
2019-04-07T22:20:17.659Z,13.30
2019-04-07T22:22:43.213Z,13.20
2019-04-07T22:25:11.979Z,13.20
2019-04-07T22:27:39.436Z,13.10
2019-04-07T22:30:09.130Z,13.00
2019-04-07T22:32:36.609Z,12.90
2019-04-07T22:35:06.809Z,12.80
2019-04-07T22:37:34.498Z,12.60
2019-04-07T22:40:02.504Z,12.50
2019-04-07T22:42:30.983Z,12.60
2019-04-07T22:44:58.524Z,12.60
2019-04-07T22:47:25.964Z,12.60
2019-04-07T22:49:53.406Z,12.50
2019-04-07T22:52:20.886Z,12.60
2019-04-07T22:54:48.330Z,12.70
2019-04-07T22:57:15.790Z,12.70
2019-04-07T22:59:43.235Z,12.70
2019-04-07T23:02:11.499Z,12.70
2019-04-07T23:04:39.075Z,12.80
2019-04-07T23:07:06.507Z,12.80
2019-04-07T23:09:33.923Z,12.80
2019-04-07T23:12:02.209Z,12.80
2019-04-07T23:14:31.460Z,12.70
2019-04-07T23:16:59.161Z,12.70
2019-04-07T23:19:27.046Z,12.70
2019-04-07T23:21:55.433Z,12.70
2019-04-07T23:24:22.904Z,12.70
2019-04-07T23:26:50.992Z,12.60
2019-04-07T23:29:18.514Z,12.60
2019-04-07T23:31:47.108Z,12.60
2019-04-07T23:34:14.807Z,12.60
2019-04-07T23:36:43.568Z,12.50
2019-04-07T23:39:11.184Z,12.40
2019-04-07T23:41:39.367Z,12.40
2019-04-07T23:44:07.313Z,12.30
2019-04-07T23:46:35.801Z,12.40
2019-04-07T23:49:03.670Z,12.40
2019-04-07T23:51:31.083Z,12.40
2019-04-07T23:54:09.263Z,12.30
2019-04-07T23:56:37.223Z,12.40
2019-04-07T23:59:06.149Z,12.30
